sensor_id;sensor_type;location;lat;lon;timestamp;pressure;altitude;pressure_sealevel;temperature;humidity
85082;BME280;75424;50.762;7.178;2024-01-10T00:00:37;102204.59;;;-8.41;81.87
85082;BME280;75424;50.762;7.178;2024-01-10T00:03:02;102203.50;;;-8.30;80.96
85082;BME280;75424;50.762;7.178;2024-01-10T00:05:28;102198.06;;;-8.34;80.52
85082;BME280;75424;50.762;7.178;2024-01-10T00:07:53;102190.47;;;-8.47;80.70
85082;BME280;75424;50.762;7.178;2024-01-10T00:10:19;102200.16;;;-8.43;82.69
85082;BME280;75424;50.762;7.178;2024-01-10T00:12:44;102193.75;;;-8.19;82.24
85082;BME280;75424;50.762;7.178;2024-01-10T00:15:10;102192.47;;;-8.11;80.67
85082;BME280;75424;50.762;7.178;2024-01-10T00:17:35;102189.97;;;-8.26;80.97
85082;BME280;75424;50.762;7.178;2024-01-10T00:20:01;102180.69;;;-8.38;81.12
85082;BME280;75424;50.762;7.178;2024-01-10T00:22:26;102180.06;;;-8.49;81.11
85082;BME280;75424;50.762;7.178;2024-01-10T00:24:51;102176.63;;;-8.64;83.44
85082;BME280;75424;50.762;7.178;2024-01-10T00:27:16;102183.66;;;-8.76;83.09
85082;BME280;75424;50.762;7.178;2024-01-10T00:29:42;102175.22;;;-8.73;83.67
85082;BME280;75424;50.762;7.178;2024-01-10T00:32:08;102172.03;;;-8.69;83.91
85082;BME280;75424;50.762;7.178;2024-01-10T00:34:33;102178.94;;;-8.54;82.53
85082;BME280;75424;50.762;7.178;2024-01-10T00:36:58;102182.75;;;-8.62;81.93
85082;BME280;75424;50.762;7.178;2024-01-10T00:39:23;102181.78;;;-8.64;82.47
85082;BME280;75424;50.762;7.178;2024-01-10T00:41:49;102173.69;;;-8.70;82.61
85082;BME280;75424;50.762;7.178;2024-01-10T00:44:14;102170.16;;;-8.72;83.23
85082;BME280;75424;50.762;7.178;2024-01-10T00:46:39;102158.44;;;-8.81;82.68
85082;BME280;75424;50.762;7.178;2024-01-10T00:49:04;102170.84;;;-8.89;82.45
85082;BME280;75424;50.762;7.178;2024-01-10T00:51:30;102164.75;;;-8.91;83.20
85082;BME280;75424;50.762;7.178;2024-01-10T00:53:55;102169.28;;;-8.87;81.63
85082;BME280;75424;50.762;7.178;2024-01-10T00:56:20;102168.38;;;-8.87;82.30
85082;BME280;75424;50.762;7.178;2024-01-10T00:58:46;102157.81;;;-8.92;82.75
85082;BME280;75424;50.762;7.178;2024-01-10T01:01:12;102151.59;;;-8.95;81.77
85082;BME280;75424;50.762;7.178;2024-01-10T01:03:38;102162.41;;;-8.86;82.51
85082;BME280;75424;50.762;7.178;2024-01-10T01:06:03;102160.66;;;-8.58;81.82
85082;BME280;75424;50.762;7.178;2024-01-10T01:08:28;102165.75;;;-8.44;81.53
85082;BME280;75424;50.762;7.178;2024-01-10T01:10:54;102164.25;;;-8.40;78.56
85082;BME280;75424;50.762;7.178;2024-01-10T01:13:19;102158.75;;;-8.46;79.38
85082;BME280;75424;50.762;7.178;2024-01-10T01:15:44;102146.22;;;-8.40;80.06
85082;BME280;75424;50.762;7.178;2024-01-10T01:18:10;102146.41;;;-8.52;79.14
85082;BME280;75424;50.762;7.178;2024-01-10T01:20:37;102160.28;;;-8.50;79.15
85082;BME280;75424;50.762;7.178;2024-01-10T01:23:03;102163.22;;;-8.58;80.61
85082;BME280;75424;50.762;7.178;2024-01-10T01:25:29;102159.94;;;-8.70;81.19
85082;BME280;75424;50.762;7.178;2024-01-10T01:27:54;102156.50;;;-8.85;82.12
85082;BME280;75424;50.762;7.178;2024-01-10T01:30:20;102167.22;;;-8.92;82.68
85082;BME280;75424;50.762;7.178;2024-01-10T01:32:46;102146.63;;;-9.07;81.67
85082;BME280;75424;50.762;7.178;2024-01-10T01:35:12;102161.28;;;-8.91;82.13
85082;BME280;75424;50.762;7.178;2024-01-10T01:37:37;102150.44;;;-8.86;82.20
85082;BME280;75424;50.762;7.178;2024-01-10T01:40:03;102168.56;;;-8.84;81.82
85082;BME280;75424;50.762;7.178;2024-01-10T01:42:28;102148.41;;;-8.91;83.09
85082;BME280;75424;50.762;7.178;2024-01-10T01:44:53;102165.19;;;-8.83;82.86
85082;BME280;75424;50.762;7.178;2024-01-10T01:47:19;102162.28;;;-8.89;82.13
85082;BME280;75424;50.762;7.178;2024-01-10T01:49:44;102155.50;;;-8.87;83.18
85082;BME280;75424;50.762;7.178;2024-01-10T01:52:10;102169.00;;;-8.91;83.52
85082;BME280;75424;50.762;7.178;2024-01-10T01:54:36;102158.63;;;-8.93;82.76
85082;BME280;75424;50.762;7.178;2024-01-10T01:57:02;102165.91;;;-8.86;84.22
85082;BME280;75424;50.762;7.178;2024-01-10T01:59:27;102148.66;;;-9.01;83.38
85082;BME280;75424;50.762;7.178;2024-01-10T02:01:54;102146.09;;;-9.01;83.23
85082;BME280;75424;50.762;7.178;2024-01-10T02:04:21;102135.38;;;-9.09;83.92
85082;BME280;75424;50.762;7.178;2024-01-10T02:06:47;102145.75;;;-9.07;84.41
85082;BME280;75424;50.762;7.178;2024-01-10T02:09:12;102145.47;;;-9.12;82.96
85082;BME280;75424;50.762;7.178;2024-01-10T02:11:38;102151.09;;;-9.04;83.67
85082;BME280;75424;50.762;7.178;2024-01-10T02:14:03;102147.44;;;-9.08;82.94
85082;BME280;75424;50.762;7.178;2024-01-10T02:16:29;102135.91;;;-9.14;83.30
85082;BME280;75424;50.762;7.178;2024-01-10T02:18:55;102145.47;;;-9.12;84.36
85082;BME280;75424;50.762;7.178;2024-01-10T02:21:21;102141.22;;;-9.11;83.83
85082;BME280;75424;50.762;7.178;2024-01-10T02:23:47;102142.56;;;-9.03;84.17
85082;BME280;75424;50.762;7.178;2024-01-10T02:26:13;102147.44;;;-9.08;84.63
85082;BME280;75424;50.762;7.178;2024-01-10T02:28:38;102138.03;;;-9.07;83.59
85082;BME280;75424;50.762;7.178;2024-01-10T02:31:04;102141.47;;;-9.07;83.84
85082;BME280;75424;50.762;7.178;2024-01-10T02:33:29;102146.47;;;-9.10;83.57
85082;BME280;75424;50.762;7.178;2024-01-10T02:35:54;102142.66;;;-9.02;84.25
85082;BME280;75424;50.762;7.178;2024-01-10T02:38:20;102141.59;;;-8.91;83.41
85082;BME280;75424;50.762;7.178;2024-01-10T02:40:48;102136.44;;;-8.91;83.19
85082;BME280;75424;50.762;7.178;2024-01-10T02:43:13;102139.28;;;-9.01;84.32
85082;BME280;75424;50.762;7.178;2024-01-10T02:45:39;102138.84;;;-9.08;84.06
85082;BME280;75424;50.762;7.178;2024-01-10T02:48:04;102135.81;;;-9.16;85.34
85082;BME280;75424;50.762;7.178;2024-01-10T02:50:30;102140.69;;;-9.06;85.24
85082;BME280;75424;50.762;7.178;2024-01-10T02:52:55;102133.84;;;-9.05;84.47
85082;BME280;75424;50.762;7.178;2024-01-10T02:55:20;102143.28;;;-9.06;84.29
85082;BME280;75424;50.762;7.178;2024-01-10T02:57:46;102132.72;;;-9.10;84.28
85082;BME280;75424;50.762;7.178;2024-01-10T03:00:11;102145.56;;;-9.10;84.33
85082;BME280;75424;50.762;7.178;2024-01-10T03:02:37;102128.19;;;-9.14;84.84
85082;BME280;75424;50.762;7.178;2024-01-10T03:05:02;102129.84;;;-9.15;85.47
85082;BME280;75424;50.762;7.178;2024-01-10T03:07:28;102136.91;;;-9.12;84.83
85082;BME280;75424;50.762;7.178;2024-01-10T03:09:53;102131.81;;;-9.11;85.37
85082;BME280;75424;50.762;7.178;2024-01-10T03:12:18;102082.84;;;-9.27;84.91
85082;BME280;75424;50.762;7.178;2024-01-10T03:14:43;102132.78;;;-8.94;84.02
85082;BME280;75424;50.762;7.178;2024-01-10T03:17:09;102131.03;;;-8.95;84.41
85082;BME280;75424;50.762;7.178;2024-01-10T03:19:34;102128.44;;;-8.95;84.83
85082;BME280;75424;50.762;7.178;2024-01-10T03:22:02;102126.88;;;-8.93;84.92
85082;BME280;75424;50.762;7.178;2024-01-10T03:24:27;102127.91;;;-8.90;84.53
85082;BME280;75424;50.762;7.178;2024-01-10T03:26:53;102136.44;;;-8.91;85.33
85082;BME280;75424;50.762;7.178;2024-01-10T03:29:18;102137.22;;;-8.92;86.43
85082;BME280;75424;50.762;7.178;2024-01-10T03:31:43;102130.22;;;-8.94;85.74
85082;BME280;75424;50.762;7.178;2024-01-10T03:34:09;102125.50;;;-9.01;85.72
85082;BME280;75424;50.762;7.178;2024-01-10T03:36:34;102128.69;;;-9.05;85.69
85082;BME280;75424;50.762;7.178;2024-01-10T03:38:59;102118.25;;;-9.08;85.76
85082;BME280;75424;50.762;7.178;2024-01-10T03:41:25;102121.44;;;-8.98;85.28
85082;BME280;75424;50.762;7.178;2024-01-10T03:43:51;102124.72;;;-9.00;87.11
85082;BME280;75424;50.762;7.178;2024-01-10T03:46:16;102120.22;;;-9.04;87.42
85082;BME280;75424;50.762;7.178;2024-01-10T03:48:41;102119.31;;;-9.05;87.15
85082;BME280;75424;50.762;7.178;2024-01-10T03:51:13;102119.13;;;-9.08;87.84
85082;BME280;75424;50.762;7.178;2024-01-10T03:53:39;102125.88;;;-9.10;88.66
85082;BME280;75424;50.762;7.178;2024-01-10T03:56:05;102119.66;;;-9.13;88.81
85082;BME280;75424;50.762;7.178;2024-01-10T03:58:30;102104.22;;;-9.28;87.63
85082;BME280;75424;50.762;7.178;2024-01-10T04:00:56;102110.19;;;-9.29;88.79
85082;BME280;75424;50.762;7.178;2024-01-10T04:03:21;102102.19;;;-9.19;89.20
85082;BME280;75424;50.762;7.178;2024-01-10T04:05:46;102103.41;;;-9.27;88.65
85082;BME280;75424;50.762;7.178;2024-01-10T04:08:12;102120.34;;;-9.01;88.15
85082;BME280;75424;50.762;7.178;2024-01-10T04:10:37;102113.91;;;-8.95;88.10
85082;BME280;75424;50.762;7.178;2024-01-10T04:13:02;102109.72;;;-8.93;86.25
85082;BME280;75424;50.762;7.178;2024-01-10T04:15:28;102113.53;;;-9.01;86.37
85082;BME280;75424;50.762;7.178;2024-01-10T04:17:53;102103.25;;;-9.15;87.12
85082;BME280;75424;50.762;7.178;2024-01-10T04:20:18;102115.22;;;-9.16;87.67
85082;BME280;75424;50.762;7.178;2024-01-10T04:22:43;102114.16;;;-9.19;88.13
85082;BME280;75424;50.762;7.178;2024-01-10T04:25:11;102116.22;;;-9.14;87.45
85082;BME280;75424;50.762;7.178;2024-01-10T04:27:36;102123.84;;;-9.15;88.49
85082;BME280;75424;50.762;7.178;2024-01-10T04:30:02;102116.91;;;-9.16;88.60
85082;BME280;75424;50.762;7.178;2024-01-10T04:32:27;102114.00;;;-9.22;88.62
85082;BME280;75424;50.762;7.178;2024-01-10T04:34:53;102114.78;;;-9.23;88.77
85082;BME280;75424;50.762;7.178;2024-01-10T04:37:18;102124.09;;;-9.25;87.48
85082;BME280;75424;50.762;7.178;2024-01-10T04:39:43;102114.50;;;-9.28;88.96
85082;BME280;75424;50.762;7.178;2024-01-10T04:42:10;102110.19;;;-9.29;88.04
85082;BME280;75424;50.762;7.178;2024-01-10T04:44:36;102088.41;;;-9.34;87.66
85082;BME280;75424;50.762;7.178;2024-01-10T04:47:01;102113.81;;;-9.25;87.59
85082;BME280;75424;50.762;7.178;2024-01-10T04:49:26;102121.53;;;-9.25;87.41
85082;BME280;75424;50.762;7.178;2024-01-10T04:51:52;102107.22;;;-9.20;86.87
85082;BME280;75424;50.762;7.178;2024-01-10T04:54:17;102109.63;;;-9.09;86.84
85082;BME280;75424;50.762;7.178;2024-01-10T04:56:43;102098.81;;;-9.03;85.79
85082;BME280;75424;50.762;7.178;2024-01-10T04:59:08;102107.75;;;-8.97;85.36
85082;BME280;75424;50.762;7.178;2024-01-10T05:01:33;102109.91;;;-9.04;85.41
85082;BME280;75424;50.762;7.178;2024-01-10T05:03:59;102112.13;;;-9.10;86.40
85082;BME280;75424;50.762;7.178;2024-01-10T05:06:24;102106.00;;;-9.12;84.88
85082;BME280;75424;50.762;7.178;2024-01-10T05:08:50;102102.81;;;-9.08;86.85
85082;BME280;75424;50.762;7.178;2024-01-10T05:11:15;102097.69;;;-9.08;87.11
85082;BME280;75424;50.762;7.178;2024-01-10T05:13:42;102103.78;;;-9.06;86.15
85082;BME280;75424;50.762;7.178;2024-01-10T05:16:08;102110.00;;;-9.03;86.40
85082;BME280;75424;50.762;7.178;2024-01-10T05:18:33;102110.25;;;-8.98;86.55
85082;BME280;75424;50.762;7.178;2024-01-10T05:20:59;102098.00;;;-9.02;87.09
85082;BME280;75424;50.762;7.178;2024-01-10T05:23:25;102109.19;;;-8.87;85.17
85082;BME280;75424;50.762;7.178;2024-01-10T05:25:50;102100.91;;;-8.82;85.00
85082;BME280;75424;50.762;7.178;2024-01-10T05:28:16;102108.19;;;-8.75;84.67
85082;BME280;75424;50.762;7.178;2024-01-10T05:30:41;102109.97;;;-8.74;84.99
85082;BME280;75424;50.762;7.178;2024-01-10T05:33:09;102102.06;;;-8.77;85.77
85082;BME280;75424;50.762;7.178;2024-01-10T05:35:36;102109.50;;;-8.67;83.98
85082;BME280;75424;50.762;7.178;2024-01-10T05:38:02;102108.47;;;-8.70;84.70
85082;BME280;75424;50.762;7.178;2024-01-10T05:40:30;102099.41;;;-8.78;84.18
85082;BME280;75424;50.762;7.178;2024-01-10T05:42:57;102097.19;;;-8.87;86.94
85082;BME280;75424;50.762;7.178;2024-01-10T05:45:22;102097.28;;;-9.00;87.34
85082;BME280;75424;50.762;7.178;2024-01-10T05:47:47;102078.25;;;-9.18;86.84
85082;BME280;75424;50.762;7.178;2024-01-10T05:50:15;102093.41;;;-9.08;88.19
85082;BME280;75424;50.762;7.178;2024-01-10T05:52:41;102077.78;;;-8.96;86.23
85082;BME280;75424;50.762;7.178;2024-01-10T05:55:06;102073.09;;;-8.58;83.13
85082;BME280;75424;50.762;7.178;2024-01-10T05:57:34;102066.69;;;-8.34;81.97
85082;BME280;75424;50.762;7.178;2024-01-10T05:59:59;102080.28;;;-8.21;81.18
85082;BME280;75424;50.762;7.178;2024-01-10T06:02:25;102084.66;;;-8.20;81.83
85082;BME280;75424;50.762;7.178;2024-01-10T06:04:50;102074.03;;;-8.26;80.47
85082;BME280;75424;50.762;7.178;2024-01-10T06:07:15;102071.75;;;-8.36;80.91
85082;BME280;75424;50.762;7.178;2024-01-10T06:09:41;102068.41;;;-8.35;81.07
85082;BME280;75424;50.762;7.178;2024-01-10T06:12:08;102070.56;;;-8.26;79.57
85082;BME280;75424;50.762;7.178;2024-01-10T06:14:34;102054.78;;;-8.32;79.17
85082;BME280;75424;50.762;7.178;2024-01-10T06:16:59;102074.28;;;-8.21;81.06
85082;BME280;75424;50.762;7.178;2024-01-10T06:19:26;102060.03;;;-8.31;80.21
85082;BME280;75424;50.762;7.178;2024-01-10T06:21:51;102071.91;;;-8.33;80.19
85082;BME280;75424;50.762;7.178;2024-01-10T06:24:17;102065.97;;;-8.32;79.41
85082;BME280;75424;50.762;7.178;2024-01-10T06:26:43;102053.03;;;-8.33;79.55
85082;BME280;75424;50.762;7.178;2024-01-10T06:29:08;102064.03;;;-8.36;80.42
85082;BME280;75424;50.762;7.178;2024-01-10T06:31:33;102052.41;;;-8.44;81.47
85082;BME280;75424;50.762;7.178;2024-01-10T06:33:59;102060.22;;;-8.42;82.17
85082;BME280;75424;50.762;7.178;2024-01-10T06:36:24;102062.56;;;-8.47;83.00
85082;BME280;75424;50.762;7.178;2024-01-10T06:38:50;102068.88;;;-8.56;83.24
85082;BME280;75424;50.762;7.178;2024-01-10T06:41:15;102062.59;;;-8.61;84.70
85082;BME280;75424;50.762;7.178;2024-01-10T06:43:41;102064.47;;;-8.59;82.32
85082;BME280;75424;50.762;7.178;2024-01-10T06:46:06;102074.47;;;-8.49;81.63
85082;BME280;75424;50.762;7.178;2024-01-10T06:48:32;102068.38;;;-8.19;80.03
85082;BME280;75424;50.762;7.178;2024-01-10T06:50:58;102069.03;;;-8.07;77.23
85082;BME280;75424;50.762;7.178;2024-01-10T06:53:23;102051.16;;;-8.04;77.91
85082;BME280;75424;50.762;7.178;2024-01-10T06:55:49;102065.78;;;-7.87;77.44
85082;BME280;75424;50.762;7.178;2024-01-10T06:58:14;102076.44;;;-7.80;78.17
85082;BME280;75424;50.762;7.178;2024-01-10T07:00:39;102071.53;;;-7.76;80.22
85082;BME280;75424;50.762;7.178;2024-01-10T07:03:05;102069.09;;;-7.89;80.28
85082;BME280;75424;50.762;7.178;2024-01-10T07:05:30;102082.91;;;-8.05;81.17
85082;BME280;75424;50.762;7.178;2024-01-10T07:07:59;102081.81;;;-8.08;81.47
85082;BME280;75424;50.762;7.178;2024-01-10T07:10:25;102090.38;;;-8.09;81.61
85082;BME280;75424;50.762;7.178;2024-01-10T07:12:53;102086.31;;;-8.20;83.23
85082;BME280;75424;50.762;7.178;2024-01-10T07:15:19;102087.56;;;-8.30;82.66
85082;BME280;75424;50.762;7.178;2024-01-10T07:17:44;102094.81;;;-8.23;82.85
85082;BME280;75424;50.762;7.178;2024-01-10T07:20:10;102092.06;;;-8.26;81.81
85082;BME280;75424;50.762;7.178;2024-01-10T07:22:37;102093.97;;;-8.38;82.34
85082;BME280;75424;50.762;7.178;2024-01-10T07:25:04;102101.63;;;-8.39;82.76
85082;BME280;75424;50.762;7.178;2024-01-10T07:27:31;102105.88;;;-8.40;83.78
85082;BME280;75424;50.762;7.178;2024-01-10T07:29:56;102112.03;;;-8.38;84.50
85082;BME280;75424;50.762;7.178;2024-01-10T07:32:23;102118.28;;;-8.33;82.14
85082;BME280;75424;50.762;7.178;2024-01-10T07:34:48;102117.44;;;-8.33;83.14
85082;BME280;75424;50.762;7.178;2024-01-10T07:37:13;102111.22;;;-8.37;83.72
85082;BME280;75424;50.762;7.178;2024-01-10T07:39:41;102104.94;;;-8.26;82.40
85082;BME280;75424;50.762;7.178;2024-01-10T07:42:07;102109.44;;;-8.06;80.86
85082;BME280;75424;50.762;7.178;2024-01-10T07:44:32;102100.44;;;-7.98;79.93
85082;BME280;75424;50.762;7.178;2024-01-10T07:46:58;102120.09;;;-8.00;79.58
85082;BME280;75424;50.762;7.178;2024-01-10T07:49:23;102114.88;;;-8.01;80.36
85082;BME280;75424;50.762;7.178;2024-01-10T07:51:49;102117.09;;;-8.07;80.39
85082;BME280;75424;50.762;7.178;2024-01-10T07:54:14;102103.44;;;-8.06;82.16
85082;BME280;75424;50.762;7.178;2024-01-10T07:56:40;102108.16;;;-7.98;81.50
85082;BME280;75424;50.762;7.178;2024-01-10T07:59:05;102109.41;;;-7.91;81.79
85082;BME280;75424;50.762;7.178;2024-01-10T08:01:31;102112.94;;;-7.89;82.12
85082;BME280;75424;50.762;7.178;2024-01-10T08:03:56;102106.97;;;-7.88;80.66
85082;BME280;75424;50.762;7.178;2024-01-10T08:06:21;102105.94;;;-7.75;80.11
85082;BME280;75424;50.762;7.178;2024-01-10T08:08:47;102090.38;;;-7.77;77.77
85082;BME280;75424;50.762;7.178;2024-01-10T08:11:12;102116.56;;;-7.53;78.06
85082;BME280;75424;50.762;7.178;2024-01-10T08:13:37;102113.41;;;-7.48;76.99
85082;BME280;75424;50.762;7.178;2024-01-10T08:16:03;102108.72;;;-7.39;75.39
85082;BME280;75424;50.762;7.178;2024-01-10T08:18:28;102106.63;;;-7.30;74.97
85082;BME280;75424;50.762;7.178;2024-01-10T08:20:55;102100.59;;;-7.13;73.98
85082;BME280;75424;50.762;7.178;2024-01-10T08:23:20;102106.59;;;-6.96;73.38
85082;BME280;75424;50.762;7.178;2024-01-10T08:25:46;102104.69;;;-6.83;72.94
85082;BME280;75424;50.762;7.178;2024-01-10T08:28:11;102098.19;;;-6.75;72.10
85082;BME280;75424;50.762;7.178;2024-01-10T08:30:38;102104.19;;;-6.58;72.02
85082;BME280;75424;50.762;7.178;2024-01-10T08:33:03;102111.59;;;-6.48;71.66
85082;BME280;75424;50.762;7.178;2024-01-10T08:35:29;102115.72;;;-6.34;71.24
85082;BME280;75424;50.762;7.178;2024-01-10T08:37:55;102115.31;;;-6.24;72.46
85082;BME280;75424;50.762;7.178;2024-01-10T08:40:20;102107.28;;;-6.30;72.40
85082;BME280;75424;50.762;7.178;2024-01-10T08:42:48;102120.63;;;-6.21;72.58
85082;BME280;75424;50.762;7.178;2024-01-10T08:45:13;102114.00;;;-6.16;73.08
85082;BME280;75424;50.762;7.178;2024-01-10T08:47:40;102117.91;;;-6.07;73.25
85082;BME280;75424;50.762;7.178;2024-01-10T08:50:05;102113.34;;;-5.93;71.46
85082;BME280;75424;50.762;7.178;2024-01-10T08:52:34;102114.09;;;-5.77;71.43
85082;BME280;75424;50.762;7.178;2024-01-10T08:55:00;102110.38;;;-5.63;70.09
85082;BME280;75424;50.762;7.178;2024-01-10T08:57:25;102117.41;;;-5.60;70.08
85082;BME280;75424;50.762;7.178;2024-01-10T08:59:52;102120.56;;;-5.48;68.66
85082;BME280;75424;50.762;7.178;2024-01-10T09:02:18;102123.31;;;-5.44;70.14
85082;BME280;75424;50.762;7.178;2024-01-10T09:04:43;102119.94;;;-5.43;68.51
85082;BME280;75424;50.762;7.178;2024-01-10T09:07:08;102119.13;;;-5.42;67.05
85082;BME280;75424;50.762;7.178;2024-01-10T09:09:34;102131.31;;;-5.39;68.73
85082;BME280;75424;50.762;7.178;2024-01-10T09:12:00;102134.97;;;-5.34;68.83
85082;BME280;75424;50.762;7.178;2024-01-10T09:14:25;102131.50;;;-5.35;68.39
85082;BME280;75424;50.762;7.178;2024-01-10T09:16:50;102129.84;;;-5.33;68.24
85082;BME280;75424;50.762;7.178;2024-01-10T09:19:17;102129.63;;;-5.39;67.85
85082;BME280;75424;50.762;7.178;2024-01-10T09:21:42;102125.84;;;-5.45;68.50
85082;BME280;75424;50.762;7.178;2024-01-10T09:24:08;102134.56;;;-5.43;69.40
85082;BME280;75424;50.762;7.178;2024-01-10T09:26:36;102142.47;;;-5.40;69.11
85082;BME280;75424;50.762;7.178;2024-01-10T09:29:01;102128.72;;;-5.39;69.99
85082;BME280;75424;50.762;7.178;2024-01-10T09:31:26;102128.47;;;-5.25;70.94
85082;BME280;75424;50.762;7.178;2024-01-10T09:33:52;102131.22;;;-5.22;70.86
85082;BME280;75424;50.762;7.178;2024-01-10T09:36:17;102136.75;;;-5.14;68.75
85082;BME280;75424;50.762;7.178;2024-01-10T09:38:42;102141.16;;;-5.12;68.16
85082;BME280;75424;50.762;7.178;2024-01-10T09:41:08;102143.75;;;-5.12;69.39
85082;BME280;75424;50.762;7.178;2024-01-10T09:43:36;102143.81;;;-5.10;69.14
85082;BME280;75424;50.762;7.178;2024-01-10T09:46:01;102140.41;;;-5.09;70.95
85082;BME280;75424;50.762;7.178;2024-01-10T09:48:29;102144.00;;;-5.06;69.71
85082;BME280;75424;50.762;7.178;2024-01-10T09:50:55;102146.94;;;-4.98;68.74
85082;BME280;75424;50.762;7.178;2024-01-10T09:53:22;102146.31;;;-4.93;68.24
85082;BME280;75424;50.762;7.178;2024-01-10T09:55:49;102149.22;;;-4.65;66.83
85082;BME280;75424;50.762;7.178;2024-01-10T09:58:14;102153.00;;;-4.57;66.11
85082;BME280;75424;50.762;7.178;2024-01-10T10:00:40;102149.22;;;-4.44;66.60
85082;BME280;75424;50.762;7.178;2024-01-10T10:03:10;102136.66;;;-4.34;65.61
85082;BME280;75424;50.762;7.178;2024-01-10T10:05:39;102147.78;;;-4.16;65.25
85082;BME280;75424;50.762;7.178;2024-01-10T10:08:08;102133.50;;;-4.05;65.36
85082;BME280;75424;50.762;7.178;2024-01-10T10:10:35;102137.78;;;-3.84;63.07
85082;BME280;75424;50.762;7.178;2024-01-10T10:13:00;102135.72;;;-3.69;63.29
85082;BME280;75424;50.762;7.178;2024-01-10T10:15:25;102126.22;;;-3.69;63.83
85082;BME280;75424;50.762;7.178;2024-01-10T10:17:54;102130.94;;;-3.59;63.74
85082;BME280;75424;50.762;7.178;2024-01-10T10:23:08;102132.47;;;-3.64;63.59
85082;BME280;75424;50.762;7.178;2024-01-10T10:25:42;102128.28;;;-3.60;62.12
85082;BME280;75424;50.762;7.178;2024-01-10T10:28:08;102123.75;;;-3.66;62.93
85082;BME280;75424;50.762;7.178;2024-01-10T10:30:34;102127.06;;;-3.70;63.97
85082;BME280;75424;50.762;7.178;2024-01-10T10:33:00;102129.41;;;-3.76;63.46
85082;BME280;75424;50.762;7.178;2024-01-10T10:35:26;102125.06;;;-3.77;63.79
85082;BME280;75424;50.762;7.178;2024-01-10T10:37:52;102122.75;;;-3.69;63.82
85082;BME280;75424;50.762;7.178;2024-01-10T10:40:18;102122.00;;;-3.67;63.33
85082;BME280;75424;50.762;7.178;2024-01-10T10:42:46;102126.47;;;-3.63;64.43
85082;BME280;75424;50.762;7.178;2024-01-10T10:45:17;102126.63;;;-3.58;65.08
85082;BME280;75424;50.762;7.178;2024-01-10T10:47:47;102119.31;;;-3.46;62.40
85082;BME280;75424;50.762;7.178;2024-01-10T10:50:22;102121.94;;;-3.45;63.10
85082;BME280;75424;50.762;7.178;2024-01-10T10:52:48;102118.72;;;-3.38;62.83
85082;BME280;75424;50.762;7.178;2024-01-10T10:55:18;102119.88;;;-3.30;63.53
85082;BME280;75424;50.762;7.178;2024-01-10T10:57:45;102112.25;;;-3.25;62.37
85082;BME280;75424;50.762;7.178;2024-01-10T11:00:19;102109.88;;;-3.19;62.35
85082;BME280;75424;50.762;7.178;2024-01-10T11:02:46;102108.94;;;-3.21;62.03
85082;BME280;75424;50.762;7.178;2024-01-10T11:05:12;102114.84;;;-3.25;62.55
85082;BME280;75424;50.762;7.178;2024-01-10T11:07:41;102110.66;;;-3.22;61.70
85082;BME280;75424;50.762;7.178;2024-01-10T11:10:12;102104.81;;;-3.15;61.94
85082;BME280;75424;50.762;7.178;2024-01-10T11:13:03;102105.09;;;-3.07;61.70
85082;BME280;75424;50.762;7.178;2024-01-10T11:21:18;102110.22;;;-2.85;60.48
85082;BME280;75424;50.762;7.178;2024-01-10T11:23:51;102106.19;;;-2.76;61.36
85082;BME280;75424;50.762;7.178;2024-01-10T11:26:19;102106.72;;;-2.61;60.64
85082;BME280;75424;50.762;7.178;2024-01-10T11:28:45;102098.72;;;-2.40;59.22
85082;BME280;75424;50.762;7.178;2024-01-10T11:31:13;102094.78;;;-2.26;59.65
85082;BME280;75424;50.762;7.178;2024-01-10T11:33:41;102088.56;;;-2.05;57.91
85082;BME280;75424;50.762;7.178;2024-01-10T11:36:16;102086.22;;;-1.96;58.58
85082;BME280;75424;50.762;7.178;2024-01-10T11:46:49;102081.59;;;-1.76;57.08
85082;BME280;75424;50.762;7.178;2024-01-10T11:49:16;102073.31;;;-1.62;55.80
85082;BME280;75424;50.762;7.178;2024-01-10T11:51:43;102076.28;;;-1.50;57.00
85082;BME280;75424;50.762;7.178;2024-01-10T11:54:09;102078.13;;;-1.46;56.32
85082;BME280;75424;50.762;7.178;2024-01-10T11:56:42;102078.81;;;-1.51;56.46
85082;BME280;75424;50.762;7.178;2024-01-10T11:59:11;102071.81;;;-1.54;56.67
85082;BME280;75424;50.762;7.178;2024-01-10T12:01:38;102069.13;;;-1.57;57.44
85082;BME280;75424;50.762;7.178;2024-01-10T12:04:05;102073.56;;;-1.53;55.92
85082;BME280;75424;50.762;7.178;2024-01-10T12:06:31;102076.19;;;-1.53;56.59
85082;BME280;75424;50.762;7.178;2024-01-10T12:08:57;102070.91;;;-1.56;56.46
85082;BME280;75424;50.762;7.178;2024-01-10T12:11:23;102074.22;;;-1.61;57.99
85082;BME280;75424;50.762;7.178;2024-01-10T12:13:48;102066.16;;;-1.69;56.88
85082;BME280;75424;50.762;7.178;2024-01-10T12:16:14;102064.41;;;-1.70;57.29
85082;BME280;75424;50.762;7.178;2024-01-10T12:18:43;102063.53;;;-1.70;57.99
85082;BME280;75424;50.762;7.178;2024-01-10T12:21:09;102061.72;;;-1.73;57.48
85082;BME280;75424;50.762;7.178;2024-01-10T12:23:38;102062.91;;;-1.62;57.70
85082;BME280;75424;50.762;7.178;2024-01-10T12:26:05;102062.19;;;-1.56;57.19
85082;BME280;75424;50.762;7.178;2024-01-10T12:28:33;102059.63;;;-1.55;57.08
85082;BME280;75424;50.762;7.178;2024-01-10T12:30:59;102067.69;;;-1.46;57.04
85082;BME280;75424;50.762;7.178;2024-01-10T12:33:25;102064.22;;;-1.46;56.84
85082;BME280;75424;50.762;7.178;2024-01-10T12:36:16;102055.94;;;-1.32;55.56
85082;BME280;75424;50.762;7.178;2024-01-10T12:38:43;102062.94;;;-1.29;56.72
85082;BME280;75424;50.762;7.178;2024-01-10T12:41:09;102065.84;;;-1.19;55.33
85082;BME280;75424;50.762;7.178;2024-01-10T12:43:35;102059.88;;;-1.15;55.12
85082;BME280;75424;50.762;7.178;2024-01-10T12:46:04;102060.69;;;-1.16;55.74
85082;BME280;75424;50.762;7.178;2024-01-10T12:48:30;102060.81;;;-1.11;55.01
85082;BME280;75424;50.762;7.178;2024-01-10T12:50:57;102053.19;;;-1.05;54.24
85082;BME280;75424;50.762;7.178;2024-01-10T12:53:26;102046.50;;;-0.94;56.22
85082;BME280;75424;50.762;7.178;2024-01-10T12:55:51;102032.69;;;-0.89;54.75
85082;BME280;75424;50.762;7.178;2024-01-10T12:58:17;102030.41;;;-0.77;53.73
85082;BME280;75424;50.762;7.178;2024-01-10T13:00:42;102035.06;;;-0.64;54.65